createdAt,value
2023-05-24T00:00:00.374Z,7.69
2023-05-24T00:01:00.374Z,7.75
2023-05-24T00:02:00.331Z,7.87
2023-05-24T00:03:00.442Z,7.82
2023-05-24T00:04:00.485Z,7.85
2023-05-24T00:05:00.585Z,7.85
2023-05-24T00:06:01.080Z,7.95
2023-05-24T00:07:01.311Z,7.90
2023-05-24T00:08:00.317Z,7.85
2023-05-24T00:09:00.326Z,7.91
2023-05-24T00:10:00.263Z,7.98
2023-05-24T00:11:00.292Z,8.00
2023-05-24T00:12:00.288Z,8.03
2023-05-24T00:13:00.287Z,8.00
2023-05-24T00:14:00.266Z,8.01
2023-05-24T00:15:00.309Z,8.19
2023-05-24T00:16:00.290Z,8.08
2023-05-24T00:17:00.314Z,8.01
2023-05-24T00:18:00.460Z,8.13
2023-05-24T00:19:00.220Z,7.95
2023-05-24T00:20:00.286Z,8.12
2023-05-24T00:21:00.222Z,7.95
2023-05-24T00:22:00.190Z,8.10
2023-05-24T00:23:00.172Z,8.05
2023-05-24T00:24:00.165Z,7.88
2023-05-24T00:25:00.221Z,7.95
2023-05-24T00:26:00.181Z,7.97
2023-05-24T00:27:00.142Z,7.88
2023-05-24T00:28:00.196Z,7.88
2023-05-24T00:29:00.145Z,8.01
2023-05-24T00:30:00.629Z,8.00
2023-05-24T00:31:00.221Z,8.18
2023-05-24T00:32:00.250Z,8.20
2023-05-24T00:33:00.123Z,8.16
2023-05-24T00:34:00.111Z,8.33
2023-05-24T00:35:00.154Z,8.28
2023-05-24T00:36:00.157Z,8.31
2023-05-24T00:37:00.054Z,8.42
2023-05-24T00:38:00.101Z,8.42
2023-05-24T00:39:00.109Z,8.51
2023-05-24T00:40:00.054Z,8.67
2023-05-24T00:41:00.094Z,8.67
2023-05-24T00:42:00.047Z,8.76
2023-05-24T00:43:00.055Z,8.84
2023-05-24T00:44:00.049Z,8.84
2023-05-24T00:45:00.006Z,8.88
2023-05-24T00:46:00.035Z,8.85
2023-05-24T00:47:00.002Z,8.92
2023-05-24T00:48:00.834Z,8.95
2023-05-24T00:48:59.996Z,8.91
2023-05-24T00:50:00.015Z,8.92
2023-05-24T00:50:59.949Z,8.92
2023-05-24T00:51:59.967Z,8.84
2023-05-24T00:52:59.985Z,8.82
2023-05-24T00:53:59.935Z,8.89
2023-05-24T00:54:59.960Z,8.82
2023-05-24T00:55:59.923Z,8.88
2023-05-24T00:57:00.234Z,8.79
2023-05-24T00:57:59.898Z,8.74
2023-05-24T00:59:00.904Z,8.79
2023-05-24T00:59:59.899Z,8.82
2023-05-24T01:01:00.895Z,8.71
2023-05-24T01:02:00.732Z,8.71
2023-05-24T01:02:59.946Z,8.64
2023-05-24T01:04:00.382Z,8.69
2023-05-24T01:04:59.908Z,8.66
2023-05-24T01:05:59.840Z,8.64
2023-05-24T01:06:59.828Z,8.53
2023-05-24T01:07:59.869Z,8.58
2023-05-24T01:08:59.837Z,8.48
2023-05-24T01:09:59.885Z,8.41
2023-05-24T01:11:00.137Z,8.44
2023-05-24T01:11:59.825Z,8.37
2023-05-24T01:12:59.841Z,8.23
2023-05-24T01:14:00.775Z,8.31
2023-05-24T01:14:59.776Z,8.19
2023-05-24T01:15:59.949Z,8.15
2023-05-24T01:16:59.819Z,8.01
2023-05-24T01:17:59.795Z,8.06
2023-05-24T01:18:59.795Z,7.97
2023-05-24T01:19:59.771Z,7.80
2023-05-24T01:20:59.744Z,7.90
2023-05-24T01:21:59.913Z,7.72
2023-05-24T01:22:59.811Z,7.75
2023-05-24T01:23:59.728Z,7.58
2023-05-24T01:24:59.696Z,7.61
2023-05-24T01:25:59.706Z,7.60
2023-05-24T01:26:59.700Z,7.54
2023-05-24T01:27:59.671Z,7.56
2023-05-24T01:28:59.661Z,7.43
2023-05-24T01:29:59.679Z,7.47
2023-05-24T01:30:59.781Z,7.45
2023-05-24T01:31:59.709Z,7.39
2023-05-24T01:32:59.665Z,7.35
2023-05-24T01:33:59.651Z,7.21
2023-05-24T01:35:01.193Z,7.28
2023-05-24T01:35:59.602Z,7.18
2023-05-24T01:36:59.885Z,7.10
2023-05-24T01:37:59.608Z,7.11
2023-05-24T01:38:59.572Z,7.10
2023-05-24T01:39:59.591Z,7.03
2023-05-24T01:40:59.608Z,6.99
2023-05-24T01:42:00.586Z,6.93
2023-05-24T01:42:59.880Z,6.93
2023-05-24T01:43:59.540Z,6.85
2023-05-24T01:44:59.550Z,6.88
2023-05-24T01:45:59.527Z,6.85
2023-05-24T01:46:59.549Z,6.78
2023-05-24T01:47:59.607Z,6.77
2023-05-24T01:48:59.499Z,6.70
2023-05-24T01:50:01.244Z,6.72
2023-05-24T01:50:59.545Z,6.57
2023-05-24T01:51:59.637Z,6.69
2023-05-24T01:52:59.514Z,6.60
2023-05-24T01:53:59.498Z,6.60
2023-05-24T01:54:59.476Z,6.59
2023-05-24T01:55:59.948Z,6.62
2023-05-24T01:56:59.442Z,6.56
2023-05-24T01:57:59.449Z,6.62
2023-05-24T01:58:59.452Z,6.56
2023-05-24T01:59:59.427Z,6.52
2023-05-24T02:00:59.490Z,6.59
2023-05-24T02:01:59.451Z,6.44
2023-05-24T02:02:59.554Z,6.41
2023-05-24T02:03:59.419Z,6.52
2023-05-24T02:04:59.404Z,6.41
2023-05-24T02:06:00.237Z,6.48
2023-05-24T02:06:59.399Z,6.31
2023-05-24T02:07:59.392Z,6.20
2023-05-24T02:08:59.394Z,6.28
2023-05-24T02:09:59.359Z,6.19
2023-05-24T02:10:59.331Z,6.11
2023-05-24T02:11:59.371Z,6.09
2023-05-24T02:12:59.330Z,6.11
2023-05-24T02:13:59.374Z,6.14
2023-05-24T02:14:59.315Z,6.08
2023-05-24T02:15:59.294Z,6.09
2023-05-24T02:16:59.498Z,6.04
2023-05-24T02:17:59.320Z,5.94
2023-05-24T02:18:59.354Z,6.16
2023-05-24T02:20:00.509Z,6.17
2023-05-24T02:20:59.287Z,6.04
2023-05-24T02:21:59.247Z,5.99
2023-05-24T02:22:59.232Z,5.94
2023-05-24T02:23:59.285Z,5.94
2023-05-24T02:24:59.235Z,5.93
2023-05-24T02:25:59.244Z,5.82
2023-05-24T02:26:59.237Z,5.76
2023-05-24T02:27:59.240Z,5.80
2023-05-24T02:28:59.227Z,5.82
2023-05-24T02:30:31.688Z,5.69
2023-05-24T02:30:59.209Z,5.69
2023-05-24T02:31:59.161Z,5.83
2023-05-24T02:32:59.267Z,5.79
2023-05-24T02:34:33.196Z,5.76
2023-05-24T02:34:59.150Z,5.68
2023-05-24T02:35:59.144Z,5.68
2023-05-24T02:36:59.158Z,5.69
2023-05-24T02:37:59.161Z,5.66
2023-05-24T02:38:59.124Z,5.65
2023-05-24T02:39:59.148Z,5.53
2023-05-24T02:40:59.103Z,5.46
2023-05-24T02:41:59.119Z,5.56
2023-05-24T02:42:59.198Z,5.48
2023-05-24T02:44:00.116Z,5.48
2023-05-24T02:44:59.071Z,5.41
2023-05-24T02:45:59.067Z,5.50
2023-05-24T02:46:59.095Z,5.47
2023-05-24T02:47:59.069Z,5.44
2023-05-24T02:48:59.071Z,5.43
2023-05-24T02:49:59.016Z,5.35
2023-05-24T02:51:00.032Z,5.38
2023-05-24T02:51:59.071Z,5.39
2023-05-24T02:52:59.039Z,5.36
2023-05-24T02:53:59.003Z,5.36
2023-05-24T02:54:58.976Z,5.35
2023-05-24T02:55:58.960Z,5.35
2023-05-24T02:56:58.981Z,5.28
2023-05-24T02:57:59.006Z,5.35
2023-05-24T02:58:59.017Z,5.30
2023-05-24T02:59:58.953Z,5.30
2023-05-24T03:00:58.964Z,5.30
2023-05-24T03:01:59.019Z,5.29
2023-05-24T03:02:59.020Z,5.32
2023-05-24T03:03:58.962Z,5.23
2023-05-24T03:04:58.933Z,5.20
2023-05-24T03:05:58.911Z,5.21
2023-05-24T03:06:59.160Z,5.18
2023-05-24T03:08:00.685Z,5.08
2023-05-24T03:08:58.888Z,5.07
2023-05-24T03:09:58.880Z,4.96
2023-05-24T03:10:59.766Z,5.12
2023-05-24T03:11:58.874Z,4.92
2023-05-24T03:12:59.773Z,4.97
2023-05-24T03:13:58.896Z,4.99
2023-05-24T03:14:58.860Z,4.87
2023-05-24T03:15:59.769Z,4.90
2023-05-24T03:16:59.352Z,4.90
2023-05-24T03:17:58.869Z,4.84
2023-05-24T03:18:58.804Z,4.90
2023-05-24T03:19:58.802Z,4.78
2023-05-24T03:20:58.816Z,4.75
2023-05-24T03:21:58.789Z,4.80
2023-05-24T03:22:58.790Z,4.74
2023-05-24T03:23:58.757Z,4.67
2023-05-24T03:24:58.792Z,4.77
2023-05-24T03:25:58.738Z,4.71
2023-05-24T03:26:58.781Z,4.77
2023-05-24T03:27:58.788Z,4.73
2023-05-24T03:28:58.807Z,4.70
2023-05-24T03:29:58.776Z,4.67
2023-05-24T03:30:58.754Z,4.63
2023-05-24T03:31:58.799Z,4.70
2023-05-24T03:32:58.762Z,4.68
2023-05-24T03:33:58.675Z,4.56
2023-05-24T03:34:58.708Z,4.60
2023-05-24T03:35:58.691Z,4.59
2023-05-24T03:36:58.665Z,4.59
2023-05-24T03:37:59.296Z,4.62
2023-05-24T03:38:58.702Z,4.63
2023-05-24T03:39:58.668Z,4.60
2023-05-24T03:40:58.617Z,4.67
2023-05-24T03:41:58.635Z,4.63
2023-05-24T03:42:58.667Z,4.66
2023-05-24T03:43:58.654Z,4.60
2023-05-24T03:44:58.620Z,4.63
2023-05-24T03:45:58.610Z,4.71
2023-05-24T03:46:58.583Z,4.82
2023-05-24T04:03:05.091Z,5.79
2023-05-24T04:04:05.088Z,5.72
2023-05-24T04:05:05.023Z,5.82
2023-05-24T04:06:04.976Z,5.89
2023-05-24T04:07:05.006Z,5.99
2023-05-24T04:08:06.144Z,6.14
2023-05-24T04:09:06.102Z,6.17
2023-05-24T04:10:06.105Z,6.26
2023-05-24T04:11:06.097Z,6.54
2023-05-24T04:12:06.121Z,6.63
2023-05-24T04:13:06.112Z,6.70
2023-05-24T04:14:06.077Z,6.95
2023-05-24T04:15:06.077Z,7.23
2023-05-24T04:16:06.053Z,7.35
2023-05-24T04:17:06.143Z,7.48
2023-05-24T04:18:06.151Z,7.53
2023-05-24T04:19:06.031Z,7.50
2023-05-24T04:20:06.061Z,7.79
2023-05-24T04:21:06.035Z,7.97
2023-05-24T04:22:06.021Z,8.19
2023-05-24T04:23:06.005Z,8.37
2023-05-24T04:24:05.995Z,8.49
2023-05-24T04:25:06.019Z,8.51
2023-05-24T04:26:06.011Z,8.38
2023-05-24T04:27:05.983Z,8.70
2023-05-24T04:28:05.974Z,8.61
2023-05-24T04:29:05.953Z,8.76
2023-05-24T04:30:05.974Z,8.73
2023-05-24T04:31:06.021Z,8.85
2023-05-24T04:32:05.921Z,9.04
2023-05-24T04:33:06.037Z,9.18
2023-05-24T04:34:05.924Z,9.46
2023-05-24T04:35:05.980Z,9.56
2023-05-24T04:36:05.952Z,9.76
2023-05-24T04:37:05.908Z,9.83
2023-05-24T04:38:05.944Z,9.82
2023-05-24T04:39:05.931Z,9.65
2023-05-24T04:40:05.873Z,9.48
2023-05-24T04:41:05.918Z,9.28
2023-05-24T04:42:05.874Z,8.97
2023-05-24T04:43:05.839Z,8.87
2023-05-24T04:44:05.868Z,8.70
2023-05-24T04:45:05.823Z,8.52
2023-05-24T04:46:06.870Z,8.37
2023-05-24T04:47:05.883Z,8.38
2023-05-24T04:48:05.836Z,8.34
2023-05-24T04:49:05.995Z,8.23
2023-05-24T04:50:05.814Z,8.26
2023-05-24T04:51:05.785Z,8.31
2023-05-24T04:52:05.806Z,8.34
2023-05-24T04:53:05.795Z,8.42
2023-05-24T04:54:05.764Z,8.33
2023-05-24T04:55:05.769Z,8.26
2023-05-24T04:56:05.778Z,8.31
2023-05-24T04:57:05.752Z,8.19
2023-05-24T04:58:05.780Z,8.37
2023-05-24T04:59:05.803Z,8.34
2023-05-24T05:00:05.750Z,8.51
2023-05-24T05:01:05.804Z,8.55
2023-05-24T05:02:05.889Z,8.55
2023-05-24T05:03:05.851Z,8.51
2023-05-24T05:04:06.787Z,8.51
2023-05-24T05:05:05.715Z,8.55
2023-05-24T05:06:05.673Z,8.69
2023-05-24T05:07:05.682Z,8.71
2023-05-24T05:08:05.684Z,8.61
2023-05-24T05:09:05.651Z,8.60
2023-05-24T05:10:05.675Z,8.67
2023-05-24T05:11:05.658Z,8.70
2023-05-24T05:12:05.613Z,8.69
2023-05-24T05:13:05.638Z,8.64
2023-05-24T05:14:05.663Z,8.66
2023-05-24T05:15:05.619Z,8.63
2023-05-24T05:16:05.671Z,8.67
2023-05-24T05:17:06.200Z,8.81
2023-05-24T05:18:05.667Z,8.82
2023-05-24T05:19:05.621Z,8.71
2023-05-24T05:20:05.723Z,8.67
2023-05-24T05:21:05.579Z,8.79
2023-05-24T05:22:38.141Z,8.73
2023-05-24T05:23:05.544Z,8.88
2023-05-24T05:24:05.566Z,8.89
2023-05-24T05:25:39.206Z,9.10
2023-05-24T05:26:05.520Z,9.18
2023-05-24T05:27:05.540Z,9.00
2023-05-24T05:28:05.508Z,8.95
2023-05-24T05:29:05.510Z,9.04
2023-05-24T05:30:05.477Z,9.14
2023-05-24T05:31:05.482Z,9.13
2023-05-24T05:32:05.508Z,9.03
2023-05-24T05:33:05.515Z,9.10
2023-05-24T05:34:05.454Z,9.11
2023-05-24T05:35:05.480Z,9.26
2023-05-24T05:36:05.448Z,9.37
2023-05-24T05:37:05.435Z,9.54
2023-05-24T05:38:05.415Z,9.65
2023-05-24T05:39:05.427Z,9.82
2023-05-24T05:40:05.395Z,9.94
2023-05-24T05:41:05.440Z,10.09
2023-05-24T05:42:05.378Z,10.26
2023-05-24T05:43:05.379Z,10.31
2023-05-24T05:44:05.379Z,10.23
2023-05-24T05:45:05.378Z,10.41
2023-05-24T05:46:05.361Z,10.41
2023-05-24T05:47:05.343Z,10.68
2023-05-24T05:48:05.505Z,10.56
2023-05-24T05:49:05.314Z,10.71
2023-05-24T05:50:05.302Z,10.35
2023-05-24T05:51:06.334Z,10.07
2023-05-24T05:52:05.306Z,9.84
2023-05-24T05:53:05.362Z,9.65
2023-05-24T05:54:05.287Z,9.66
2023-05-24T05:55:05.289Z,9.56
2023-05-24T05:56:05.304Z,9.48
2023-05-24T05:57:05.269Z,9.34
2023-05-24T05:58:05.283Z,9.23
2023-05-24T05:59:05.282Z,9.41
2023-05-24T06:00:05.308Z,9.59
2023-05-24T06:01:05.237Z,9.73
2023-05-24T06:02:05.261Z,9.79
2023-05-24T06:03:05.273Z,9.79
2023-05-24T06:04:05.328Z,9.80
2023-05-24T06:05:05.233Z,9.65
2023-05-24T06:06:05.188Z,9.72
2023-05-24T06:07:05.181Z,9.66
2023-05-24T06:08:05.181Z,9.46
2023-05-24T06:09:05.174Z,9.48
2023-05-24T06:10:05.183Z,9.44
2023-05-24T06:11:05.187Z,9.41
2023-05-24T06:12:05.153Z,9.58
2023-05-24T06:13:05.159Z,9.56
2023-05-24T06:14:05.128Z,9.56
2023-05-24T06:15:05.164Z,9.65
2023-05-24T06:16:05.209Z,9.62
2023-05-24T06:17:05.093Z,9.48
2023-05-24T06:18:05.135Z,9.48
2023-05-24T06:19:06.637Z,9.44
2023-05-24T06:20:06.160Z,9.46
2023-05-24T06:21:05.057Z,9.54
2023-05-24T06:22:05.070Z,9.40
2023-05-24T06:23:05.032Z,9.50
2023-05-24T06:24:05.064Z,9.51
2023-05-24T06:25:05.050Z,9.40
2023-05-24T06:26:05.075Z,9.44
2023-05-24T06:27:05.663Z,9.36
2023-05-24T06:28:06.103Z,9.37
2023-05-24T06:29:05.020Z,9.43
2023-05-24T06:30:05.074Z,9.43
2023-05-24T06:31:05.041Z,9.54
2023-05-24T06:32:05.010Z,9.44
2023-05-24T06:33:05.056Z,9.40
2023-05-24T06:34:05.041Z,9.54
2023-05-24T06:35:05.981Z,9.40
2023-05-24T06:36:05.045Z,9.51
2023-05-24T06:37:04.977Z,9.51
2023-05-24T06:38:04.923Z,9.54
2023-05-24T06:39:04.955Z,9.48
2023-05-24T06:40:04.963Z,9.48
2023-05-24T06:41:04.915Z,9.69
2023-05-24T06:42:04.910Z,10.05
2023-05-24T06:43:04.910Z,10.15
2023-05-24T06:44:04.920Z,10.25
2023-05-24T06:45:04.881Z,10.67
2023-05-24T06:46:04.899Z,11.33
2023-05-24T06:47:04.906Z,11.37
2023-05-24T06:48:04.968Z,11.40
2023-05-24T06:49:04.892Z,11.30
2023-05-24T06:50:04.885Z,11.12
2023-05-24T06:51:04.824Z,11.19
2023-05-24T06:52:04.805Z,11.14
2023-05-24T06:53:04.846Z,10.79
2023-05-24T06:54:04.871Z,10.63
2023-05-24T06:55:04.845Z,10.41
2023-05-24T06:56:04.798Z,10.41
2023-05-24T06:57:04.781Z,10.54
2023-05-24T06:58:04.766Z,10.49
2023-05-24T06:59:04.793Z,10.67
2023-05-24T07:00:05.765Z,10.57
2023-05-24T07:01:05.095Z,10.67
2023-05-24T07:02:04.969Z,10.54
2023-05-24T07:03:04.801Z,10.49
2023-05-24T07:04:04.801Z,10.56
2023-05-24T07:05:04.905Z,10.48
2023-05-24T07:06:04.721Z,10.40
2023-05-24T07:07:04.723Z,10.25
2023-05-24T07:08:19.336Z,10.15
2023-05-24T07:09:04.680Z,10.16
2023-05-24T07:10:04.708Z,10.19
2023-05-24T07:11:04.699Z,10.41
2023-05-24T07:12:06.418Z,10.53
2023-05-24T07:13:05.608Z,10.60
2023-05-24T07:14:04.666Z,10.60
2023-05-24T07:15:04.636Z,10.63
2023-05-24T07:16:04.663Z,10.64
2023-05-24T07:17:04.694Z,10.79
2023-05-24T07:18:04.651Z,10.87
2023-05-24T07:19:05.170Z,10.94
2023-05-24T07:20:05.720Z,10.97
2023-05-24T07:21:04.667Z,10.94
2023-05-24T07:22:04.634Z,11.11
2023-05-24T07:23:04.576Z,11.19
2023-05-24T07:24:04.572Z,11.11
2023-05-24T07:25:04.587Z,10.81
2023-05-24T07:26:04.599Z,10.72
2023-05-24T07:27:04.583Z,10.59
2023-05-24T07:28:04.527Z,10.78
2023-05-24T07:29:04.543Z,10.82
2023-05-24T07:30:04.538Z,10.97
2023-05-24T07:31:04.529Z,11.12
2023-05-24T07:32:04.570Z,11.25
2023-05-24T07:33:04.562Z,11.17
2023-05-24T07:34:04.522Z,11.17
2023-05-24T07:35:04.518Z,11.23
2023-05-24T07:36:04.517Z,11.35
2023-05-24T07:37:04.477Z,11.27
2023-05-24T07:38:04.476Z,11.35
2023-05-24T07:39:04.492Z,11.51
2023-05-24T07:40:05.309Z,11.52
2023-05-24T07:41:04.466Z,11.51
2023-05-24T07:42:04.471Z,11.72
2023-05-24T07:43:04.562Z,12.06
2023-05-24T07:44:04.470Z,12.32
2023-05-24T07:45:04.428Z,12.54
2023-05-24T07:46:04.481Z,12.95
2023-05-24T07:47:04.457Z,13.16
2023-05-24T07:48:04.443Z,13.33
2023-05-24T07:49:04.407Z,13.08
2023-05-24T07:50:04.416Z,13.33
2023-05-24T07:51:04.389Z,13.47
2023-05-24T07:52:04.388Z,13.53
2023-05-24T07:53:04.413Z,13.50
2023-05-24T07:54:04.355Z,13.62
2023-05-24T07:55:04.405Z,13.81
2023-05-24T07:56:04.366Z,13.79
2023-05-24T07:57:05.167Z,13.70
2023-05-24T07:58:04.344Z,13.39
2023-05-24T07:59:04.334Z,12.78
2023-05-24T08:00:04.317Z,12.40
2023-05-24T08:01:04.300Z,12.47
2023-05-24T08:02:04.306Z,12.72
2023-05-24T08:03:04.370Z,12.80
2023-05-24T08:04:04.480Z,12.91
2023-05-24T08:05:04.282Z,12.91
2023-05-24T08:06:04.264Z,12.65
2023-05-24T08:07:04.283Z,13.04
2023-05-24T08:08:04.258Z,13.11
2023-05-24T08:09:04.837Z,13.20
2023-05-24T08:10:04.261Z,12.97
2023-05-24T08:11:04.246Z,13.15
2023-05-24T08:12:04.216Z,13.01
2023-05-24T08:13:04.213Z,13.11
2023-05-24T08:14:04.261Z,13.03
2023-05-24T08:15:04.238Z,13.04
2023-05-24T08:16:04.170Z,13.01
2023-05-24T08:17:04.195Z,13.05
2023-05-24T08:18:05.190Z,12.86
2023-05-24T08:19:04.149Z,12.87
2023-05-24T08:20:04.161Z,13.01
2023-05-24T08:21:04.149Z,12.85
2023-05-24T08:22:04.145Z,12.67
2023-05-24T08:23:04.123Z,12.75
2023-05-24T08:24:06.146Z,12.50
2023-05-24T08:25:04.134Z,12.50
2023-05-24T08:26:04.135Z,12.36
2023-05-24T08:27:04.116Z,12.35
2023-05-24T08:28:04.139Z,12.73
2023-05-24T08:29:04.122Z,12.97
2023-05-24T08:30:04.106Z,13.47
2023-05-24T08:31:04.151Z,13.72
2023-05-24T08:32:04.150Z,13.81
2023-05-24T08:33:04.113Z,13.89
2023-05-24T08:34:04.138Z,13.89
2023-05-24T08:35:18.590Z,13.93
2023-05-24T08:36:06.018Z,13.92
2023-05-24T08:37:04.028Z,14.28
2023-05-24T08:38:04.032Z,14.40
2023-05-24T08:39:04.037Z,14.40
2023-05-24T08:40:04.006Z,13.95
2023-05-24T08:41:04.062Z,13.75
2023-05-24T08:42:09.858Z,13.60
2023-05-24T08:43:06.015Z,13.77
2023-05-24T08:44:03.986Z,14.04
2023-05-24T08:45:03.988Z,14.03
2023-05-24T08:46:04.036Z,13.83
2023-05-24T08:47:04.005Z,14.03
2023-05-24T08:48:04.084Z,14.23
2023-05-24T08:49:04.017Z,14.05
2023-05-24T08:50:03.937Z,13.74
2023-05-24T08:51:03.925Z,13.70
2023-05-24T08:52:03.914Z,14.00
2023-05-24T08:53:03.936Z,13.99
2023-05-24T08:54:03.899Z,13.96
2023-05-24T08:55:03.926Z,14.23
2023-05-24T08:56:03.903Z,14.37
2023-05-24T08:57:03.875Z,14.40
2023-05-24T08:58:03.875Z,14.25
2023-05-24T08:59:03.907Z,14.78
2023-05-24T09:00:05.807Z,14.94
2023-05-24T09:01:03.913Z,14.55
2023-05-24T09:02:03.987Z,14.51
2023-05-24T09:03:03.849Z,14.81
2023-05-24T09:04:03.985Z,14.59
2023-05-24T09:05:03.875Z,14.45
2023-05-24T09:06:03.893Z,14.14
2023-05-24T09:07:03.802Z,13.75
2023-05-24T09:08:03.800Z,13.59
2023-05-24T09:09:03.803Z,13.86
2023-05-24T09:10:03.844Z,13.68
2023-05-24T09:11:03.776Z,13.54
2023-05-24T09:12:03.816Z,13.54
2023-05-24T09:13:03.807Z,13.68
2023-05-24T09:14:03.746Z,13.68
2023-05-24T09:15:35.692Z,13.63
2023-05-24T09:16:03.780Z,13.85
2023-05-24T09:17:36.481Z,13.81
2023-05-24T09:18:03.762Z,13.87
2023-05-24T09:19:36.305Z,14.03
2023-05-24T09:20:03.775Z,14.22
2023-05-24T09:21:03.739Z,14.59
2023-05-24T09:22:03.678Z,14.73
2023-05-24T09:23:03.705Z,14.99
2023-05-24T09:24:03.655Z,15.70
2023-05-24T09:25:03.716Z,16.26
2023-05-24T09:26:03.673Z,16.31
2023-05-24T09:27:03.674Z,16.24
2023-05-24T09:28:03.638Z,16.20
2023-05-24T09:29:03.635Z,16.13
2023-05-24T09:30:03.677Z,16.04
2023-05-24T09:31:06.216Z,15.77
2023-05-24T09:32:04.640Z,15.75
2023-05-24T09:33:03.638Z,15.52
2023-05-24T09:34:03.600Z,15.54
2023-05-24T09:35:03.625Z,15.77
2023-05-24T09:36:03.665Z,15.65
2023-05-24T09:37:03.616Z,15.72
2023-05-24T09:38:03.574Z,15.86
2023-05-24T09:39:04.301Z,15.68
2023-05-24T09:40:03.555Z,15.24
2023-05-24T09:41:03.582Z,15.31
2023-05-24T09:42:03.605Z,15.51
2023-05-24T09:43:03.516Z,15.64
2023-05-24T09:44:03.513Z,15.52
2023-05-24T09:45:03.511Z,15.21
2023-05-24T09:46:03.515Z,15.06
2023-05-24T09:47:03.527Z,14.88
2023-05-24T09:48:03.559Z,14.84
2023-05-24T09:49:03.526Z,14.81
2023-05-24T09:50:03.564Z,14.59
2023-05-24T09:51:03.481Z,14.53
2023-05-24T09:52:03.558Z,14.62
2023-05-24T09:53:03.480Z,14.60
2023-05-24T09:54:03.539Z,14.70
2023-05-24T09:55:03.406Z,14.78
2023-05-24T09:56:03.427Z,14.82
2023-05-24T09:57:04.803Z,14.89
2023-05-24T09:58:03.409Z,15.06
2023-05-24T09:59:03.452Z,15.31
2023-05-24T10:00:03.403Z,15.21
2023-05-24T10:01:03.486Z,15.18
2023-05-24T10:02:03.386Z,15.22
2023-05-24T10:03:05.017Z,15.00
2023-05-24T10:04:05.472Z,14.92
2023-05-24T10:05:03.397Z,14.94
2023-05-24T10:06:03.371Z,14.92
2023-05-24T10:07:03.407Z,14.86
2023-05-24T10:08:03.325Z,14.97
2023-05-24T10:09:03.374Z,14.86
2023-05-24T10:10:05.992Z,14.85
2023-05-24T10:11:03.405Z,14.62
2023-05-24T10:12:03.350Z,14.65
2023-05-24T10:13:03.320Z,14.72
2023-05-24T10:14:03.339Z,14.78
2023-05-24T10:15:03.299Z,14.97
2023-05-24T10:16:03.343Z,15.06
2023-05-24T10:17:03.327Z,14.99
2023-05-24T10:18:03.294Z,15.28
2023-05-24T10:19:03.283Z,15.68
2023-05-24T10:20:03.308Z,15.84
2023-05-24T10:21:03.367Z,16.38
2023-05-24T10:22:03.220Z,16.54
2023-05-24T10:23:04.224Z,16.43
2023-05-24T10:24:03.227Z,16.02
2023-05-24T10:25:03.207Z,15.76
2023-05-24T10:26:03.229Z,15.82
2023-05-24T10:27:03.198Z,15.92
2023-05-24T10:28:03.168Z,16.04
2023-05-24T10:29:04.196Z,15.80
2023-05-24T10:30:04.575Z,15.33
2023-05-24T10:31:03.303Z,15.28
2023-05-24T10:32:03.917Z,15.39
2023-05-24T10:33:04.221Z,15.58
2023-05-24T10:34:07.903Z,15.73
2023-05-24T10:35:05.173Z,16.13
2023-05-24T10:36:03.123Z,16.35
2023-05-24T10:37:03.902Z,16.84
2023-05-24T10:38:03.140Z,17.26
2023-05-24T10:39:03.099Z,17.71
2023-05-24T10:40:03.097Z,17.65
2023-05-24T10:41:03.084Z,17.49
2023-05-24T10:42:03.084Z,16.87
2023-05-24T10:43:03.056Z,16.89
2023-05-24T10:45:04.070Z,16.46
2023-05-24T10:46:03.061Z,16.10
2023-05-24T10:47:03.941Z,16.20
2023-05-24T10:48:03.192Z,16.65
2023-05-24T10:49:17.490Z,16.58
2023-05-24T10:50:03.001Z,16.51
2023-05-24T10:51:03.988Z,15.88
2023-05-24T10:52:03.020Z,15.59
2023-05-24T10:53:03.005Z,15.28
2023-05-24T10:54:03.051Z,14.97
2023-05-24T10:55:04.271Z,14.99
2023-05-24T10:56:04.005Z,15.06
2023-05-24T10:57:02.999Z,14.89
2023-05-24T10:58:03.002Z,15.07
2023-05-24T10:59:02.996Z,15.33
2023-05-24T11:00:02.974Z,15.28
2023-05-24T11:01:02.996Z,15.10
2023-05-24T11:02:02.990Z,15.27
2023-05-24T11:03:03.005Z,15.39
2023-05-24T11:04:02.914Z,15.22
2023-05-24T11:05:02.995Z,15.04
2023-05-24T11:06:02.940Z,15.40
2023-05-24T11:07:02.910Z,16.09
2023-05-24T11:08:02.872Z,16.65
2023-05-24T11:09:02.849Z,17.36
2023-05-24T11:10:02.950Z,17.39
2023-05-24T11:11:15.039Z,17.11
2023-05-24T11:12:04.834Z,16.84
2023-05-24T11:13:02.849Z,16.50
2023-05-24T11:14:02.904Z,16.50
2023-05-24T11:15:02.861Z,17.01
2023-05-24T11:16:02.849Z,17.12
2023-05-24T11:17:02.844Z,17.42
2023-05-24T11:18:03.528Z,17.83
2023-05-24T11:19:02.808Z,17.23
2023-05-24T11:20:02.874Z,16.74
2023-05-24T11:21:02.821Z,16.83
2023-05-24T11:22:02.795Z,16.56
2023-05-24T11:23:02.805Z,16.26
2023-05-24T11:24:02.796Z,16.12
2023-05-24T11:25:02.770Z,16.10
2023-05-24T11:26:02.797Z,15.65
2023-05-24T11:27:02.799Z,15.61
2023-05-24T11:28:02.792Z,16.10
2023-05-24T11:29:05.216Z,16.71
2023-05-24T11:30:03.743Z,16.84
2023-05-24T11:31:02.749Z,16.87
2023-05-24T11:32:03.528Z,17.39
2023-05-24T11:33:02.722Z,18.23
2023-05-24T11:34:02.723Z,18.60
2023-05-24T11:35:02.709Z,18.75
2023-05-24T11:36:02.695Z,19.22
2023-05-24T11:37:02.660Z,19.69
2023-05-24T11:38:02.717Z,20.21
2023-05-24T11:39:02.624Z,20.18
2023-05-24T11:40:02.684Z,20.11
2023-05-24T11:41:02.706Z,19.47
2023-05-24T11:42:02.635Z,18.86
2023-05-24T11:43:02.742Z,18.37
2023-05-24T11:44:02.645Z,18.55
2023-05-24T11:45:02.669Z,18.43
2023-05-24T11:46:02.788Z,18.22
2023-05-24T11:47:02.605Z,18.35
2023-05-24T11:48:02.602Z,18.20
2023-05-24T11:49:02.604Z,18.34
2023-05-24T11:50:02.648Z,18.59
2023-05-24T11:51:02.563Z,18.70
2023-05-24T11:52:02.535Z,18.50
2023-05-24T11:53:02.612Z,18.16
2023-05-24T11:54:02.556Z,18.25
2023-05-24T11:55:02.573Z,18.65
2023-05-24T11:56:02.565Z,18.95
2023-05-24T11:57:02.538Z,19.26
2023-05-24T11:58:02.604Z,19.31
2023-05-24T11:59:02.529Z,19.07
2023-05-24T12:00:03.366Z,19.15
2023-05-24T12:01:02.492Z,18.44
2023-05-24T12:02:02.609Z,17.74
2023-05-24T12:03:02.596Z,18.11
2023-05-24T12:04:02.617Z,18.50
2023-05-24T12:05:03.583Z,18.47
2023-05-24T12:06:02.464Z,18.04
2023-05-24T12:07:03.577Z,17.95
2023-05-24T12:08:02.460Z,17.92
2023-05-24T12:09:02.514Z,17.38
2023-05-24T12:10:02.504Z,17.31
2023-05-24T12:11:02.449Z,17.02
2023-05-24T12:12:02.434Z,16.90
2023-05-24T12:13:02.426Z,16.96
2023-05-24T12:14:02.467Z,16.86
2023-05-24T12:15:02.505Z,16.53
2023-05-24T12:16:02.406Z,16.66
2023-05-24T12:17:02.428Z,17.23
2023-05-24T12:18:02.472Z,17.80
2023-05-24T12:19:07.134Z,17.94
2023-05-24T12:20:04.480Z,18.26
2023-05-24T12:21:02.337Z,18.13
2023-05-24T12:22:02.349Z,17.74
2023-05-24T12:23:02.593Z,17.42
2023-05-24T12:24:02.340Z,16.87
2023-05-24T12:25:02.362Z,16.68
2023-05-24T12:26:02.356Z,16.79
2023-05-24T12:27:02.362Z,16.99
2023-05-24T12:28:02.291Z,17.22
2023-05-24T12:29:03.130Z,17.45
2023-05-24T12:30:02.281Z,17.78
2023-05-24T12:31:02.380Z,18.23
2023-05-24T12:32:02.294Z,18.90
2023-05-24T12:33:02.389Z,19.55
2023-05-24T12:34:02.285Z,19.70
2023-05-24T12:35:02.247Z,19.88
2023-05-24T12:36:02.561Z,20.69
2023-05-24T12:37:02.263Z,20.66
2023-05-24T12:38:02.281Z,20.58
2023-05-24T12:39:02.245Z,20.41
2023-05-24T12:40:02.219Z,20.36
2023-05-24T12:42:04.850Z,18.11
2023-05-24T12:43:02.221Z,17.78
2023-05-24T12:44:02.327Z,17.95
2023-05-24T12:45:02.200Z,17.95
2023-05-24T12:46:02.794Z,17.54
2023-05-24T12:47:02.913Z,17.39
2023-05-24T12:48:02.198Z,17.34
2023-05-24T12:49:02.129Z,17.41
2023-05-24T12:50:02.133Z,17.42
2023-05-24T12:51:03.112Z,17.51
2023-05-24T12:52:02.291Z,17.71
2023-05-24T12:53:02.103Z,17.44
2023-05-24T12:54:02.115Z,17.45
2023-05-24T12:55:02.203Z,17.68
2023-05-24T12:56:02.065Z,17.72
2023-05-24T12:57:02.097Z,18.23
2023-05-24T12:58:02.126Z,18.40
2023-05-24T12:59:02.095Z,17.90
2023-05-24T13:00:02.032Z,17.71
2023-05-24T13:01:02.080Z,17.68
2023-05-24T13:02:02.286Z,17.45
2023-05-24T13:03:02.633Z,17.71
2023-05-24T13:04:02.012Z,17.42
2023-05-24T13:05:02.092Z,16.94
2023-05-24T13:06:02.052Z,17.04
2023-05-24T13:07:02.051Z,17.24
2023-05-24T13:08:02.065Z,17.41
2023-05-24T13:09:02.079Z,17.16
2023-05-24T13:10:02.043Z,17.11
2023-05-24T13:11:35.988Z,16.84
2023-05-24T13:12:02.043Z,15.94
2023-05-24T13:13:02.221Z,15.97
2023-05-24T13:14:01.974Z,16.43
2023-05-24T13:15:01.942Z,17.06
2023-05-24T13:16:01.928Z,17.48
2023-05-24T13:17:02.095Z,17.71
2023-05-24T13:18:02.021Z,17.94
2023-05-24T13:19:01.930Z,17.85
2023-05-24T13:20:02.128Z,17.85
2023-05-24T13:21:01.917Z,18.26